sensor_id;sensor_type;location;lat;lon;timestamp;pressure;altitude;pressure_sealevel;temperature;humidity
10079;BME280;5078;42.544;22.966;2023-01-19T00:00:23;92901.94;;;12.00;89.96
10079;BME280;5078;42.544;22.966;2023-01-19T00:02:50;92906.63;;;11.98;89.43
10079;BME280;5078;42.544;22.966;2023-01-19T00:05:17;92910.50;;;11.95;89.83
10079;BME280;5078;42.544;22.966;2023-01-19T00:07:44;92937.50;;;11.99;88.76
10079;BME280;5078;42.544;22.966;2023-01-19T00:10:11;92931.97;;;12.00;87.50
10079;BME280;5078;42.544;22.966;2023-01-19T00:12:39;92931.56;;;12.03;87.16
10079;BME280;5078;42.544;22.966;2023-01-19T00:15:06;92936.06;;;11.96;87.71
10079;BME280;5078;42.544;22.966;2023-01-19T00:17:33;92935.66;;;11.99;87.05
10079;BME280;5078;42.544;22.966;2023-01-19T00:20:00;92920.94;;;11.97;87.12
10079;BME280;5078;42.544;22.966;2023-01-19T00:22:28;92921.56;;;11.99;86.38
10079;BME280;5078;42.544;22.966;2023-01-19T00:24:55;92917.06;;;11.99;85.23
10079;BME280;5078;42.544;22.966;2023-01-19T00:27:21;92925.22;;;11.98;85.57
10079;BME280;5078;42.544;22.966;2023-01-19T00:29:50;92909.09;;;11.99;84.85
10079;BME280;5078;42.544;22.966;2023-01-19T00:32:16;92922.97;;;11.95;84.42
10079;BME280;5078;42.544;22.966;2023-01-19T00:34:44;92914.81;;;11.96;83.46
10079;BME280;5078;42.544;22.966;2023-01-19T00:37:14;92926.25;;;12.03;81.65
10079;BME280;5078;42.544;22.966;2023-01-19T00:39:41;92920.53;;;12.00;81.43
10079;BME280;5078;42.544;22.966;2023-01-19T00:42:10;92926.44;;;12.02;81.12
10079;BME280;5078;42.544;22.966;2023-01-19T00:44:56;92917.66;;;12.01;81.34
10079;BME280;5078;42.544;22.966;2023-01-19T00:47:23;92953.00;;;12.08;80.10
10079;BME280;5078;42.544;22.966;2023-01-19T00:49:50;92939.09;;;12.13;79.66
10079;BME280;5078;42.544;22.966;2023-01-19T00:52:17;92916.00;;;12.07;79.82
10079;BME280;5078;42.544;22.966;2023-01-19T00:54:43;92928.06;;;12.09;79.30
10079;BME280;5078;42.544;22.966;2023-01-19T00:57:10;92919.72;;;12.06;79.26
10079;BME280;5078;42.544;22.966;2023-01-19T00:59:37;92916.81;;;12.14;78.62
10079;BME280;5078;42.544;22.966;2023-01-19T01:02:05;92942.34;;;12.15;79.06
10079;BME280;5078;42.544;22.966;2023-01-19T01:04:32;92910.28;;;12.17;79.19
10079;BME280;5078;42.544;22.966;2023-01-19T01:06:59;92943.78;;;12.18;79.31
10079;BME280;5078;42.544;22.966;2023-01-19T01:09:26;92925.22;;;12.11;79.69
10079;BME280;5078;42.544;22.966;2023-01-19T01:11:52;92921.13;;;12.08;79.67
10079;BME280;5078;42.544;22.966;2023-01-19T01:14:19;92928.06;;;12.16;78.30
10079;BME280;5078;42.544;22.966;2023-01-19T01:16:46;92922.31;;;12.19;77.83
10079;BME280;5078;42.544;22.966;2023-01-19T01:19:14;92924.34;;;12.24;77.50
10079;BME280;5078;42.544;22.966;2023-01-19T01:21:41;92915.16;;;12.20;77.78
10079;BME280;5078;42.544;22.966;2023-01-19T01:24:08;92919.84;;;12.24;76.42
10079;BME280;5078;42.544;22.966;2023-01-19T01:26:35;92904.09;;;12.29;75.59
10079;BME280;5078;42.544;22.966;2023-01-19T01:29:01;92935.19;;;12.29;75.01
10079;BME280;5078;42.544;22.966;2023-01-19T01:31:28;92927.59;;;12.33;74.08
10079;BME280;5078;42.544;22.966;2023-01-19T01:33:55;92907.19;;;12.26;73.52
10079;BME280;5078;42.544;22.966;2023-01-19T01:36:23;92909.78;;;12.40;73.68
10079;BME280;5078;42.544;22.966;2023-01-19T01:38:53;92918.38;;;12.35;73.66
10079;BME280;5078;42.544;22.966;2023-01-19T01:41:20;92925.53;;;12.35;73.84
10079;BME280;5078;42.544;22.966;2023-01-19T01:43:48;92907.16;;;12.33;73.89
10079;BME280;5078;42.544;22.966;2023-01-19T01:46:16;92896.72;;;12.32;73.06
10079;BME280;5078;42.544;22.966;2023-01-19T01:48:48;92941.50;;;12.35;72.87
10079;BME280;5078;42.544;22.966;2023-01-19T01:51:21;92917.56;;;12.35;72.76
10079;BME280;5078;42.544;22.966;2023-01-19T01:53:59;92918.81;;;12.32;73.55
10079;BME280;5078;42.544;22.966;2023-01-19T01:56:31;92914.34;;;12.19;74.18
10079;BME280;5078;42.544;22.966;2023-01-19T01:59:02;92918.84;;;12.19;73.70
10079;BME280;5078;42.544;22.966;2023-01-19T02:01:31;92899.25;;;12.13;74.29
10079;BME280;5078;42.544;22.966;2023-01-19T02:04:15;92893.50;;;12.16;73.96
10079;BME280;5078;42.544;22.966;2023-01-19T02:06:42;92895.75;;;12.19;73.74
10079;BME280;5078;42.544;22.966;2023-01-19T02:09:28;92889.44;;;12.14;74.10
10079;BME280;5078;42.544;22.966;2023-01-19T02:12:16;92919.88;;;12.18;72.79
10079;BME280;5078;42.544;22.966;2023-01-19T02:15:00;92895.13;;;12.17;72.86
10079;BME280;5078;42.544;22.966;2023-01-19T02:17:27;92877.16;;;12.13;73.16
10079;BME280;5078;42.544;22.966;2023-01-19T02:19:54;92888.19;;;12.16;72.86
10079;BME280;5078;42.544;22.966;2023-01-19T02:22:24;92875.53;;;12.18;72.77
10079;BME280;5078;42.544;22.966;2023-01-19T02:25:01;92873.09;;;12.10;72.57
10079;BME280;5078;42.544;22.966;2023-01-19T02:27:29;92866.72;;;12.18;71.17
10079;BME280;5078;42.544;22.966;2023-01-19T02:29:56;92882.47;;;12.19;70.99
10079;BME280;5078;42.544;22.966;2023-01-19T02:32:23;92846.47;;;12.23;70.91
10079;BME280;5078;42.544;22.966;2023-01-19T02:34:50;92869.38;;;12.18;70.80
10079;BME280;5078;42.544;22.966;2023-01-19T02:37:17;92869.78;;;12.21;70.94
10079;BME280;5078;42.544;22.966;2023-01-19T02:39:49;92857.50;;;12.20;70.41
10079;BME280;5078;42.544;22.966;2023-01-19T02:42:22;92841.75;;;12.25;70.06
10079;BME280;5078;42.544;22.966;2023-01-19T02:44:52;92883.44;;;12.32;69.81
10079;BME280;5078;42.544;22.966;2023-01-19T02:47:20;92881.03;;;12.23;69.76
10079;BME280;5078;42.544;22.966;2023-01-19T02:49:54;92886.09;;;12.32;69.12
10079;BME280;5078;42.544;22.966;2023-01-19T02:52:20;92859.53;;;12.32;69.13
10079;BME280;5078;42.544;22.966;2023-01-19T02:54:58;92869.13;;;12.33;69.00
10079;BME280;5078;42.544;22.966;2023-01-19T02:57:34;92862.19;;;12.32;68.78
10079;BME280;5078;42.544;22.966;2023-01-19T03:00:18;92855.00;;;12.32;67.64
10079;BME280;5078;42.544;22.966;2023-01-19T03:02:57;92867.28;;;12.33;67.30
10079;BME280;5078;42.544;22.966;2023-01-19T03:05:31;92850.91;;;12.36;66.90
10079;BME280;5078;42.544;22.966;2023-01-19T03:08:08;92870.16;;;12.32;67.27
10079;BME280;5078;42.544;22.966;2023-01-19T03:10:45;92864.66;;;12.26;67.05
10079;BME280;5078;42.544;22.966;2023-01-19T03:13:17;92890.19;;;12.34;66.33
10079;BME280;5078;42.544;22.966;2023-01-19T03:15:51;92883.88;;;12.28;66.25
10079;BME280;5078;42.544;22.966;2023-01-19T03:18:22;92865.25;;;12.28;65.39
10079;BME280;5078;42.544;22.966;2023-01-19T03:20:52;92864.84;;;12.32;65.25
10079;BME280;5078;42.544;22.966;2023-01-19T03:23:25;92879.59;;;12.21;65.43
10079;BME280;5078;42.544;22.966;2023-01-19T03:25:54;92879.19;;;12.24;65.24
10079;BME280;5078;42.544;22.966;2023-01-19T03:28:23;92851.00;;;12.16;65.43
10079;BME280;5078;42.544;22.966;2023-01-19T03:30:56;92859.97;;;12.15;65.54
10079;BME280;5078;42.544;22.966;2023-01-19T03:33:27;92863.47;;;12.16;65.35
10079;BME280;5078;42.544;22.966;2023-01-19T03:35:58;92857.13;;;12.23;65.15
10079;BME280;5078;42.544;22.966;2023-01-19T03:38:30;92861.81;;;12.21;64.98
10079;BME280;5078;42.544;22.966;2023-01-19T03:41:02;92852.59;;;12.24;64.62
10079;BME280;5078;42.544;22.966;2023-01-19T03:43:32;92879.00;;;12.19;65.36
10079;BME280;5078;42.544;22.966;2023-01-19T03:46:01;92860.22;;;12.14;65.52
10079;BME280;5078;42.544;22.966;2023-01-19T03:48:29;92858.16;;;12.16;65.51
10079;BME280;5078;42.544;22.966;2023-01-19T03:50:57;92860.84;;;12.09;66.17
10079;BME280;5078;42.544;22.966;2023-01-19T03:53:24;92869.00;;;12.07;65.91
10079;BME280;5078;42.544;22.966;2023-01-19T03:55:51;92873.88;;;12.17;65.94
10079;BME280;5078;42.544;22.966;2023-01-19T03:58:18;92867.75;;;12.17;65.93
10079;BME280;5078;42.544;22.966;2023-01-19T04:00:47;92872.47;;;12.08;66.04
10079;BME280;5078;42.544;22.966;2023-01-19T04:03:15;92855.34;;;12.04;66.04
10079;BME280;5078;42.544;22.966;2023-01-19T04:05:43;92870.66;;;12.08;65.81
10079;BME280;5078;42.544;22.966;2023-01-19T04:08:10;92854.72;;;12.08;65.76
10079;BME280;5078;42.544;22.966;2023-01-19T04:10:37;92851.88;;;12.03;65.33
10079;BME280;5078;42.544;22.966;2023-01-19T04:13:04;92856.34;;;12.09;65.12
10079;BME280;5078;42.544;22.966;2023-01-19T04:15:31;92865.53;;;12.07;65.11
10079;BME280;5078;42.544;22.966;2023-01-19T04:18:00;92842.22;;;12.09;65.71
10079;BME280;5078;42.544;22.966;2023-01-19T04:20:27;92843.22;;;12.15;66.06
10079;BME280;5078;42.544;22.966;2023-01-19T04:22:54;92841.38;;;12.15;66.02
10079;BME280;5078;42.544;22.966;2023-01-19T04:25:21;92843.25;;;12.08;65.68
10079;BME280;5078;42.544;22.966;2023-01-19T04:27:50;92846.31;;;12.12;65.76
10079;BME280;5078;42.544;22.966;2023-01-19T04:30:17;92856.31;;;12.16;66.02
10079;BME280;5078;42.544;22.966;2023-01-19T04:32:44;92856.94;;;12.05;66.43
10079;BME280;5078;42.544;22.966;2023-01-19T04:35:13;92853.88;;;12.08;66.33
10079;BME280;5078;42.544;22.966;2023-01-19T04:37:39;92853.09;;;12.01;66.31
10079;BME280;5078;42.544;22.966;2023-01-19T04:40:07;92850.66;;;11.93;66.64
10079;BME280;5078;42.544;22.966;2023-01-19T04:42:34;92866.19;;;11.96;66.24
10079;BME280;5078;42.544;22.966;2023-01-19T04:45:01;92868.44;;;11.99;66.36
10079;BME280;5078;42.544;22.966;2023-01-19T04:47:28;92880.91;;;11.98;66.31
10079;BME280;5078;42.544;22.966;2023-01-19T04:49:55;92881.28;;;12.02;65.93
10079;BME280;5078;42.544;22.966;2023-01-19T04:52:23;92883.31;;;12.06;65.93
10079;BME280;5078;42.544;22.966;2023-01-19T04:54:49;92908.25;;;12.05;65.98
10079;BME280;5078;42.544;22.966;2023-01-19T04:57:17;92893.94;;;12.06;66.13
10079;BME280;5078;42.544;22.966;2023-01-19T04:59:43;92911.13;;;11.97;66.59
10079;BME280;5078;42.544;22.966;2023-01-19T05:02:10;92910.31;;;11.97;66.58
10079;BME280;5078;42.544;22.966;2023-01-19T05:04:37;92913.16;;;12.02;66.39
10079;BME280;5078;42.544;22.966;2023-01-19T05:07:03;92915.81;;;12.08;66.43
10079;BME280;5078;42.544;22.966;2023-01-19T05:09:31;92915.81;;;12.08;66.54
10079;BME280;5078;42.544;22.966;2023-01-19T05:11:58;92920.09;;;12.03;67.06
10079;BME280;5078;42.544;22.966;2023-01-19T05:14:25;92912.91;;;12.23;68.01
10079;BME280;5078;42.544;22.966;2023-01-19T05:16:51;92913.91;;;12.29;67.01
10079;BME280;5078;42.544;22.966;2023-01-19T05:19:18;92918.59;;;12.34;66.79
10079;BME280;5078;42.544;22.966;2023-01-19T05:21:45;92913.13;;;12.22;66.84
10079;BME280;5078;42.544;22.966;2023-01-19T05:24:12;92910.44;;;12.28;66.97
10079;BME280;5078;42.544;22.966;2023-01-19T05:26:41;92892.84;;;12.27;66.35
10079;BME280;5078;42.544;22.966;2023-01-19T05:29:07;92912.72;;;12.18;66.21
10079;BME280;5078;42.544;22.966;2023-01-19T05:31:34;92919.63;;;12.33;65.65
10079;BME280;5078;42.544;22.966;2023-01-19T05:34:01;92939.69;;;12.28;66.08
10079;BME280;5078;42.544;22.966;2023-01-19T05:36:28;92915.78;;;12.22;65.55
10079;BME280;5078;42.544;22.966;2023-01-19T05:38:55;92922.91;;;12.28;65.16
10079;BME280;5078;42.544;22.966;2023-01-19T05:41:21;92918.44;;;12.22;65.35
10079;BME280;5078;42.544;22.966;2023-01-19T05:43:49;92928.19;;;12.35;65.36
10079;BME280;5078;42.544;22.966;2023-01-19T05:46:16;92903.66;;;12.39;64.71
10079;BME280;5078;42.544;22.966;2023-01-19T05:48:43;92921.28;;;12.27;64.97
10079;BME280;5078;42.544;22.966;2023-01-19T05:51:10;92943.56;;;12.26;65.20
10079;BME280;5078;42.544;22.966;2023-01-19T05:53:37;92944.44;;;12.13;65.48
10079;BME280;5078;42.544;22.966;2023-01-19T05:56:05;92934.84;;;11.92;66.98
10079;BME280;5078;42.544;22.966;2023-01-19T05:58:33;92953.44;;;11.92;66.74
10079;BME280;5078;42.544;22.966;2023-01-19T06:01:02;92942.19;;;11.97;66.81
10079;BME280;5078;42.544;22.966;2023-01-19T06:03:30;92968.97;;;11.89;67.05
10079;BME280;5078;42.544;22.966;2023-01-19T06:05:57;92981.66;;;11.93;66.82
10079;BME280;5078;42.544;22.966;2023-01-19T06:08:24;92963.22;;;11.85;68.09
10079;BME280;5078;42.544;22.966;2023-01-19T06:10:51;92969.16;;;11.87;68.16
10079;BME280;5078;42.544;22.966;2023-01-19T06:13:18;92969.19;;;11.94;67.74
10079;BME280;5078;42.544;22.966;2023-01-19T06:15:45;92972.66;;;12.01;67.18
10079;BME280;5078;42.544;22.966;2023-01-19T06:18:14;92977.53;;;12.04;67.03
10079;BME280;5078;42.544;22.966;2023-01-19T06:20:40;92978.13;;;12.13;66.64
10079;BME280;5078;42.544;22.966;2023-01-19T06:23:07;92978.75;;;12.15;66.16
10079;BME280;5078;42.544;22.966;2023-01-19T06:25:34;92970.34;;;12.24;65.78
10079;BME280;5078;42.544;22.966;2023-01-19T06:28:01;92980.34;;;12.29;65.84
10079;BME280;5078;42.544;22.966;2023-01-19T06:30:28;92978.09;;;12.33;65.34
10079;BME280;5078;42.544;22.966;2023-01-19T06:32:55;92992.81;;;12.35;65.12
10079;BME280;5078;42.544;22.966;2023-01-19T06:35:23;92980.31;;;12.49;64.44
10079;BME280;5078;42.544;22.966;2023-01-19T06:37:49;92972.09;;;12.57;63.23
10079;BME280;5078;42.544;22.966;2023-01-19T06:40:17;92977.41;;;12.64;62.11
10079;BME280;5078;42.544;22.966;2023-01-19T06:42:44;92981.66;;;12.71;62.19
10079;BME280;5078;42.544;22.966;2023-01-19T06:45:11;92997.44;;;12.73;61.87
10079;BME280;5078;42.544;22.966;2023-01-19T06:47:37;92993.91;;;12.79;62.03
10079;BME280;5078;42.544;22.966;2023-01-19T06:50:05;93005.72;;;12.97;61.25
10079;BME280;5078;42.544;22.966;2023-01-19T06:52:33;92991.16;;;12.99;60.16
10079;BME280;5078;42.544;22.966;2023-01-19T06:55:07;92984.00;;;13.00;60.01
10079;BME280;5078;42.544;22.966;2023-01-19T06:57:35;92976.53;;;13.15;59.00
10079;BME280;5078;42.544;22.966;2023-01-19T07:00:03;92992.50;;;13.28;58.12
10079;BME280;5078;42.544;22.966;2023-01-19T07:02:32;92981.78;;;13.35;57.46
10079;BME280;5078;42.544;22.966;2023-01-19T07:04:59;92985.88;;;13.37;57.14
10079;BME280;5078;42.544;22.966;2023-01-19T07:07:26;92975.34;;;13.49;56.57
10079;BME280;5078;42.544;22.966;2023-01-19T07:09:54;92942.00;;;13.72;55.30
10079;BME280;5078;42.544;22.966;2023-01-19T07:12:21;92969.03;;;13.75;54.75
10079;BME280;5078;42.544;22.966;2023-01-19T07:14:47;92962.78;;;13.88;54.13
10079;BME280;5078;42.544;22.966;2023-01-19T07:17:14;92974.53;;;13.80;53.07
10079;BME280;5078;42.544;22.966;2023-01-19T07:19:41;92965.00;;;13.91;53.03
10079;BME280;5078;42.544;22.966;2023-01-19T07:22:08;92969.03;;;14.00;52.51
10079;BME280;5078;42.544;22.966;2023-01-19T07:24:35;92965.03;;;14.10;52.58
10079;BME280;5078;42.544;22.966;2023-01-19T07:27:03;92960.00;;;14.20;51.88
10079;BME280;5078;42.544;22.966;2023-01-19T07:29:30;92949.50;;;14.25;51.32
10079;BME280;5078;42.544;22.966;2023-01-19T07:31:57;92969.06;;;14.37;50.35
10079;BME280;5078;42.544;22.966;2023-01-19T07:34:27;92971.50;;;14.20;50.46
10079;BME280;5078;42.544;22.966;2023-01-19T07:36:55;92964.31;;;14.39;49.74
10079;BME280;5078;42.544;22.966;2023-01-19T07:39:23;92940.72;;;14.43;50.06
10079;BME280;5078;42.544;22.966;2023-01-19T07:41:50;92946.28;;;14.60;49.68
10079;BME280;5078;42.544;22.966;2023-01-19T07:44:18;92950.59;;;14.61;48.80
10079;BME280;5078;42.544;22.966;2023-01-19T07:46:45;92935.47;;;14.73;48.33
10079;BME280;5078;42.544;22.966;2023-01-19T07:49:13;92963.31;;;14.77;48.21
10079;BME280;5078;42.544;22.966;2023-01-19T07:51:40;92965.84;;;14.91;48.10
10079;BME280;5078;42.544;22.966;2023-01-19T07:54:06;92930.13;;;14.73;47.87
10079;BME280;5078;42.544;22.966;2023-01-19T07:56:33;92941.31;;;14.82;47.81
10079;BME280;5078;42.544;22.966;2023-01-19T07:59:00;92942.00;;;15.07;47.45
10079;BME280;5078;42.544;22.966;2023-01-19T08:01:28;92923.88;;;14.98;47.05
10079;BME280;5078;42.544;22.966;2023-01-19T08:03:55;92936.38;;;15.27;46.68
10079;BME280;5078;42.544;22.966;2023-01-19T08:06:23;92941.78;;;15.39;46.67
10079;BME280;5078;42.544;22.966;2023-01-19T08:08:52;92943.38;;;15.28;46.24
10079;BME280;5078;42.544;22.966;2023-01-19T08:11:19;92956.53;;;15.42;45.95
10079;BME280;5078;42.544;22.966;2023-01-19T08:13:45;92915.66;;;15.41;45.67
10079;BME280;5078;42.544;22.966;2023-01-19T08:16:12;92946.84;;;15.29;46.23
10079;BME280;5078;42.544;22.966;2023-01-19T08:18:40;92928.13;;;15.59;45.67
10079;BME280;5078;42.544;22.966;2023-01-19T08:21:07;92934.69;;;15.33;45.38
10079;BME280;5078;42.544;22.966;2023-01-19T08:23:34;92948.66;;;15.47;45.24
10079;BME280;5078;42.544;22.966;2023-01-19T08:26:00;92962.34;;;15.39;46.24
10079;BME280;5078;42.544;22.966;2023-01-19T08:28:27;92948.53;;;15.42;46.21
10079;BME280;5078;42.544;22.966;2023-01-19T08:30:54;92963.28;;;15.44;45.85
10079;BME280;5078;42.544;22.966;2023-01-19T08:33:22;92955.84;;;15.46;45.99
10079;BME280;5078;42.544;22.966;2023-01-19T08:35:52;92955.56;;;15.66;45.34
10079;BME280;5078;42.544;22.966;2023-01-19T08:38:19;92953.84;;;15.72;44.88
10079;BME280;5078;42.544;22.966;2023-01-19T08:40:47;92956.13;;;15.57;45.53
10079;BME280;5078;42.544;22.966;2023-01-19T08:43:15;92931.56;;;15.78;45.54
10079;BME280;5078;42.544;22.966;2023-01-19T08:45:44;92968.97;;;15.90;45.24
10079;BME280;5078;42.544;22.966;2023-01-19T08:48:12;92924.13;;;15.80;45.07
10079;BME280;5078;42.544;22.966;2023-01-19T08:50:39;92922.41;;;15.98;45.22
10079;BME280;5078;42.544;22.966;2023-01-19T08:53:09;92946.22;;;15.76;45.03
10079;BME280;5078;42.544;22.966;2023-01-19T08:55:36;92944.38;;;15.88;44.90
10079;BME280;5078;42.544;22.966;2023-01-19T08:58:04;92926.91;;;15.73;45.36
10079;BME280;5078;42.544;22.966;2023-01-19T09:00:34;92986.53;;;15.86;45.63
10079;BME280;5078;42.544;22.966;2023-01-19T09:03:02;92954.00;;;15.89;45.59
10079;BME280;5078;42.544;22.966;2023-01-19T09:05:31;92928.03;;;15.66;45.85
10079;BME280;5078;42.544;22.966;2023-01-19T09:08:00;92910.94;;;15.55;46.28
10079;BME280;5078;42.544;22.966;2023-01-19T09:10:28;92906.34;;;15.74;45.84
10079;BME280;5078;42.544;22.966;2023-01-19T09:12:59;92922.19;;;15.57;47.20
10079;BME280;5078;42.544;22.966;2023-01-19T09:15:27;92930.75;;;15.47;48.29
10079;BME280;5078;42.544;22.966;2023-01-19T09:17:54;92936.38;;;15.27;50.54
10079;BME280;5078;42.544;22.966;2023-01-19T09:20:20;92929.97;;;15.17;50.03
10079;BME280;5078;42.544;22.966;2023-01-19T09:22:47;92940.47;;;15.00;50.69
10079;BME280;5078;42.544;22.966;2023-01-19T09:25:14;92935.75;;;14.65;52.86
10079;BME280;5078;42.544;22.966;2023-01-19T09:27:42;92927.47;;;14.73;54.32
10079;BME280;5078;42.544;22.966;2023-01-19T09:30:11;92925.19;;;14.58;54.97
10079;BME280;5078;42.544;22.966;2023-01-19T09:32:38;92922.13;;;14.55;55.95
10079;BME280;5078;42.544;22.966;2023-01-19T09:35:05;92954.41;;;14.28;57.71
10079;BME280;5078;42.544;22.966;2023-01-19T09:37:32;92931.19;;;14.10;60.26
10079;BME280;5078;42.544;22.966;2023-01-19T09:39:58;92916.97;;;13.98;59.89
10079;BME280;5078;42.544;22.966;2023-01-19T09:42:30;92921.97;;;14.13;59.46
10079;BME280;5078;42.544;22.966;2023-01-19T09:45:01;92919.97;;;13.83;59.73
10079;BME280;5078;42.544;22.966;2023-01-19T09:47:31;92925.97;;;13.53;63.00
10079;BME280;5078;42.544;22.966;2023-01-19T09:50:03;92902.91;;;13.41;66.77
10079;BME280;5078;42.544;22.966;2023-01-19T09:52:34;92906.25;;;13.29;67.41
10079;BME280;5078;42.544;22.966;2023-01-19T09:55:02;92871.16;;;13.07;70.22
10079;BME280;5078;42.544;22.966;2023-01-19T09:57:29;92937.34;;;12.97;71.67
10079;BME280;5078;42.544;22.966;2023-01-19T09:59:56;92908.94;;;12.91;69.99
10079;BME280;5078;42.544;22.966;2023-01-19T10:02:35;92910.78;;;12.90;70.03
10079;BME280;5078;42.544;22.966;2023-01-19T10:05:04;92913.84;;;12.94;71.74
10079;BME280;5078;42.544;22.966;2023-01-19T10:07:47;92865.38;;;12.85;70.65
10079;BME280;5078;42.544;22.966;2023-01-19T10:10:19;92877.91;;;12.78;76.14
10079;BME280;5078;42.544;22.966;2023-01-19T10:13:04;92861.56;;;12.74;76.42
10079;BME280;5078;42.544;22.966;2023-01-19T10:15:42;92892.47;;;12.76;73.22
10079;BME280;5078;42.544;22.966;2023-01-19T10:18:16;92880.50;;;12.85;71.82
10079;BME280;5078;42.544;22.966;2023-01-19T10:20:47;92874.72;;;12.94;73.01
10079;BME280;5078;42.544;22.966;2023-01-19T10:23:31;92886.00;;;12.90;70.24
10079;BME280;5078;42.544;22.966;2023-01-19T10:26:04;92877.97;;;13.03;67.83
10079;BME280;5078;42.544;22.966;2023-01-19T10:28:31;92871.88;;;12.96;69.59
10079;BME280;5078;42.544;22.966;2023-01-19T10:30:59;92830.16;;;12.90;73.08
10079;BME280;5078;42.544;22.966;2023-01-19T10:33:27;92869.03;;;12.91;69.48
10079;BME280;5078;42.544;22.966;2023-01-19T10:35:54;92864.53;;;12.91;69.79
10079;BME280;5078;42.544;22.966;2023-01-19T10:38:21;92874.25;;;13.04;67.82
10079;BME280;5078;42.544;22.966;2023-01-19T10:40:54;92842.78;;;13.01;67.27
10079;BME280;5078;42.544;22.966;2023-01-19T10:43:39;92841.25;;;13.12;65.65
10079;BME280;5078;42.544;22.966;2023-01-19T10:46:15;92821.78;;;13.18;64.59
10079;BME280;5078;42.544;22.966;2023-01-19T10:48:47;92850.38;;;13.23;64.58
10079;BME280;5078;42.544;22.966;2023-01-19T10:51:25;92864.22;;;13.38;65.12
10079;BME280;5078;42.544;22.966;2023-01-19T10:54:01;92901.97;;;13.28;64.44
10079;BME280;5078;42.544;22.966;2023-01-19T10:56:31;92869.00;;;13.29;63.00
10079;BME280;5078;42.544;22.966;2023-01-19T10:59:02;92870.06;;;13.22;64.24
10079;BME280;5078;42.544;22.966;2023-01-19T11:01:31;92875.97;;;13.24;64.98
10079;BME280;5078;42.544;22.966;2023-01-19T11:04:26;92875.25;;;13.10;65.44
10079;BME280;5078;42.544;22.966;2023-01-19T11:07:13;92858.03;;;13.12;66.30
10079;BME280;5078;42.544;22.966;2023-01-19T11:09:40;92847.50;;;13.24;66.60
10079;BME280;5078;42.544;22.966;2023-01-19T11:12:15;92856.16;;;13.45;62.60
10079;BME280;5078;42.544;22.966;2023-01-19T11:14:43;92835.09;;;13.87;60.14
10079;BME280;5078;42.544;22.966;2023-01-19T11:17:21;92831.16;;;14.08;58.26
10079;BME280;5078;42.544;22.966;2023-01-19T11:19:56;92832.19;;;14.25;58.07
10079;BME280;5078;42.544;22.966;2023-01-19T11:22:27;92827.91;;;14.24;57.75
10079;BME280;5078;42.544;22.966;2023-01-19T11:25:02;92830.72;;;14.29;57.38
10079;BME280;5078;42.544;22.966;2023-01-19T11:27:32;92829.59;;;14.00;58.55
10079;BME280;5078;42.544;22.966;2023-01-19T11:30:03;92834.03;;;13.88;57.78
10079;BME280;5078;42.544;22.966;2023-01-19T11:32:35;92826.59;;;13.78;58.30
10079;BME280;5078;42.544;22.966;2023-01-19T11:35:36;92779.66;;;13.77;56.34
10079;BME280;5078;42.544;22.966;2023-01-19T11:38:16;92796.53;;;13.71;57.55
10079;BME280;5078;42.544;22.966;2023-01-19T11:40:52;92829.91;;;13.73;57.26
10079;BME280;5078;42.544;22.966;2023-01-19T11:43:20;92808.19;;;13.70;58.13
10079;BME280;5078;42.544;22.966;2023-01-19T11:45:48;92777.03;;;13.52;60.42
10079;BME280;5078;42.544;22.966;2023-01-19T11:48:22;92817.38;;;13.55;59.08
10079;BME280;5078;42.544;22.966;2023-01-19T11:50:52;92819.13;;;13.43;60.17
10079;BME280;5078;42.544;22.966;2023-01-19T11:53:21;92858.94;;;13.31;63.35
10079;BME280;5078;42.544;22.966;2023-01-19T11:55:54;92797.13;;;13.23;61.72
10079;BME280;5078;42.544;22.966;2023-01-19T11:58:22;92796.94;;;13.24;60.64
10079;BME280;5078;42.544;22.966;2023-01-19T12:00:52;92809.03;;;13.20;59.83
10079;BME280;5078;42.544;22.966;2023-01-19T12:03:23;92832.34;;;13.31;59.37
10079;BME280;5078;42.544;22.966;2023-01-19T12:05:57;92826.59;;;13.28;61.57
10079;BME280;5078;42.544;22.966;2023-01-19T12:08:32;92825.69;;;13.15;61.70
10079;BME280;5078;42.544;22.966;2023-01-19T12:11:02;92850.53;;;13.03;64.22
10079;BME280;5078;42.544;22.966;2023-01-19T12:13:33;92826.06;;;12.87;65.45
10079;BME280;5078;42.544;22.966;2023-01-19T12:16:05;92839.16;;;12.89;63.46
10079;BME280;5078;42.544;22.966;2023-01-19T12:18:37;92826.63;;;12.96;64.11
10079;BME280;5078;42.544;22.966;2023-01-19T12:21:10;92806.00;;;12.91;64.91
10079;BME280;5078;42.544;22.966;2023-01-19T12:23:45;92792.59;;;13.05;61.27
10079;BME280;5078;42.544;22.966;2023-01-19T12:26:25;92804.75;;;13.19;61.37
10079;BME280;5078;42.544;22.966;2023-01-19T12:28:55;92811.84;;;13.32;59.04
10079;BME280;5078;42.544;22.966;2023-01-19T12:31:25;92823.03;;;13.41;58.03
10079;BME280;5078;42.544;22.966;2023-01-19T12:33:52;92820.47;;;13.52;57.50
10079;BME280;5078;42.544;22.966;2023-01-19T12:36:36;92824.53;;;13.55;56.90
10079;BME280;5078;42.544;22.966;2023-01-19T12:39:08;92796.22;;;13.61;56.97
10079;BME280;5078;42.544;22.966;2023-01-19T12:41:37;92809.75;;;13.59;57.26
10079;BME280;5078;42.544;22.966;2023-01-19T12:44:26;92811.22;;;13.55;56.94
10079;BME280;5078;42.544;22.966;2023-01-19T12:46:56;92784.97;;;13.58;57.02
10079;BME280;5078;42.544;22.966;2023-01-19T12:49:30;92811.97;;;13.62;56.12
10079;BME280;5078;42.544;22.966;2023-01-19T12:52:24;92813.72;;;13.50;57.63
10079;BME280;5078;42.544;22.966;2023-01-19T12:55:19;92820.31;;;13.47;58.79
10079;BME280;5078;42.544;22.966;2023-01-19T12:57:54;92803.25;;;13.30;59.48
10079;BME280;5078;42.544;22.966;2023-01-19T13:00:31;92827.78;;;13.38;59.17
10079;BME280;5078;42.544;22.966;2023-01-19T13:02:59;92805.81;;;13.43;58.38
10079;BME280;5078;42.544;22.966;2023-01-19T13:05:56;92809.28;;;13.44;58.88
10079;BME280;5078;42.544;22.966;2023-01-19T13:08:26;92817.56;;;13.35;60.10
10079;BME280;5078;42.544;22.966;2023-01-19T13:11:18;92803.16;;;13.43;60.10
10079;BME280;5078;42.544;22.966;2023-01-19T13:16:58;92802.13;;;13.44;60.08